createdAt,value
2023-11-07T00:01:58.067Z,7.60
2023-11-07T00:06:59.898Z,7.56
2023-11-07T00:12:04.197Z,7.56
2023-11-07T00:17:08.348Z,7.49
2023-11-07T00:22:10.148Z,7.45
2023-11-07T00:27:15.685Z,7.50
2023-11-07T00:32:20.021Z,7.50
2023-11-07T00:37:24.421Z,7.42
2023-11-07T00:42:26.199Z,7.44
2023-11-07T00:47:28.320Z,7.52
2023-11-07T00:52:32.634Z,7.57
2023-11-07T00:57:34.441Z,7.60
2023-11-07T01:02:38.710Z,7.62
2023-11-07T01:07:41.101Z,7.54
2023-11-07T01:12:45.283Z,7.50
2023-11-07T01:17:47.234Z,7.47
2023-11-07T01:22:51.161Z,7.51
2023-11-07T01:27:56.318Z,7.49
2023-11-07T01:32:58.830Z,7.43
2023-11-07T01:38:00.765Z,7.39
2023-11-07T01:43:17.461Z,7.35
2023-11-07T01:48:23.878Z,7.26
2023-11-07T01:53:26.561Z,7.19
2023-11-07T01:58:28.966Z,7.18
2023-11-07T02:03:33.896Z,7.09
2023-11-07T02:08:38.197Z,7.07
2023-11-07T02:13:40.320Z,7.01
2023-11-07T02:18:42.238Z,7.15
2023-11-07T02:23:46.495Z,7.25
2023-11-07T02:28:51.626Z,7.35
2023-11-07T02:33:54.496Z,7.45
2023-11-07T02:38:56.635Z,7.56
2023-11-07T02:43:58.739Z,7.53
2023-11-07T02:49:00.717Z,7.39
2023-11-07T02:54:02.938Z,7.34
2023-11-07T02:59:07.242Z,7.29
2023-11-07T03:04:09.163Z,7.42
2023-11-07T03:09:11.443Z,7.43
2023-11-07T03:14:15.700Z,7.47
2023-11-07T03:19:19.905Z,7.42
2023-11-07T03:24:21.795Z,7.30
2023-11-07T03:29:25.931Z,7.27
2023-11-07T03:34:30.114Z,7.31
2023-11-07T03:39:32.567Z,7.27
2023-11-07T03:44:36.180Z,7.32
2023-11-07T03:49:38.065Z,7.38
2023-11-07T03:54:39.845Z,7.39
2023-11-07T03:59:46.383Z,7.50
2023-11-07T04:04:48.325Z,7.61
2023-11-07T04:09:50.279Z,7.72
2023-11-07T04:14:55.840Z,7.80
2023-11-07T04:20:05.431Z,7.88
2023-11-07T04:25:10.925Z,7.92
2023-11-07T04:30:18.730Z,7.98
2023-11-07T04:35:22.962Z,8.04
2023-11-07T04:40:27.682Z,8.06
2023-11-07T04:45:29.487Z,8.08
2023-11-07T04:50:31.319Z,8.10
2023-11-07T04:55:33.266Z,8.13
2023-11-07T05:00:50.553Z,8.12
2023-11-07T05:05:52.580Z,8.09
2023-11-07T05:10:56.135Z,8.10
2023-11-07T05:15:57.987Z,8.09
2023-11-07T05:21:00.942Z,8.12
2023-11-07T05:26:04.382Z,8.15
2023-11-07T05:31:14.438Z,8.14
2023-11-07T05:36:19.128Z,8.11
2023-11-07T05:41:25.328Z,8.12
2023-11-07T05:46:29.515Z,7.99
2023-11-07T05:51:33.994Z,7.84
2023-11-07T05:56:37.140Z,7.69
2023-11-07T06:01:45.330Z,7.59
2023-11-07T06:06:47.208Z,7.51
2023-11-07T06:11:49.103Z,7.55
2023-11-07T06:16:56.661Z,7.46
2023-11-07T06:22:00.614Z,7.44
2023-11-07T06:27:02.427Z,7.78
2023-11-07T06:32:06.761Z,7.58
2023-11-07T06:37:14.002Z,7.46
2023-11-07T06:42:18.922Z,7.38
2023-11-07T06:47:22.752Z,7.30
2023-11-07T06:52:27.190Z,7.51
2023-11-07T06:57:36.098Z,7.65
2023-11-07T07:02:38.949Z,7.78
2023-11-07T07:07:44.105Z,7.86
2023-11-07T07:12:48.271Z,7.79
2023-11-07T07:17:50.278Z,7.90
2023-11-07T07:22:54.830Z,8.10
2023-11-07T07:28:22.294Z,8.10
2023-11-07T07:33:25.641Z,8.03
2023-11-07T07:38:31.909Z,7.95
2023-11-07T07:43:35.935Z,7.96
2023-11-07T07:48:37.854Z,7.97
2023-11-07T07:53:40.184Z,8.07
2023-11-07T07:58:54.052Z,8.08
2023-11-07T08:03:56.342Z,8.17
2023-11-07T08:09:00.644Z,8.26
2023-11-07T08:14:05.569Z,8.31
2023-11-07T08:19:07.587Z,8.32
2023-11-07T08:24:09.667Z,8.40
2023-11-07T08:29:12.499Z,8.55
2023-11-07T08:34:17.594Z,8.47
2023-11-07T08:39:28.781Z,8.43
2023-11-07T08:44:32.884Z,8.43
2023-11-07T08:49:35.651Z,8.52
2023-11-07T08:54:40.616Z,8.74
2023-11-07T08:59:47.136Z,8.90
2023-11-07T09:04:54.851Z,8.93
2023-11-07T09:10:03.481Z,9.08
2023-11-07T09:15:08.350Z,9.15
2023-11-07T09:20:20.005Z,9.34
2023-11-07T09:25:22.471Z,9.34
2023-11-07T09:30:26.271Z,9.35
2023-11-07T09:35:34.356Z,9.55
2023-11-07T09:41:06.600Z,9.64
2023-11-07T09:46:11.144Z,9.68
2023-11-07T09:51:16.153Z,9.87
2023-11-07T09:56:23.468Z,9.97
2023-11-07T10:01:32.493Z,9.82
2023-11-07T10:06:34.601Z,9.70
2023-11-07T10:11:54.825Z,9.90
2023-11-07T10:16:58.452Z,10.42
2023-11-07T10:22:05.670Z,10.67
2023-11-07T10:27:11.781Z,10.88
2023-11-07T10:32:15.979Z,11.03
2023-11-07T10:37:19.304Z,11.30
2023-11-07T10:42:21.630Z,11.15
2023-11-07T10:47:24.196Z,10.96
2023-11-07T10:52:26.618Z,10.86
2023-11-07T10:57:30.162Z,10.89
2023-11-07T11:02:35.303Z,10.48
2023-11-07T11:07:38.192Z,10.72
2023-11-07T11:18:17.188Z,11.38
2023-11-07T11:24:00.350Z,11.31
2023-11-07T11:29:28.583Z,12.70
2023-11-07T11:34:31.970Z,11.97
2023-11-07T11:39:37.753Z,12.18
2023-11-07T11:44:42.510Z,12.44
2023-11-07T11:50:14.527Z,12.52
2023-11-07T11:55:58.717Z,12.05
2023-11-07T12:01:05.067Z,12.23
2023-11-07T12:06:08.316Z,12.80
2023-11-07T12:11:11.733Z,13.11
2023-11-07T12:16:23.380Z,12.82
2023-11-07T12:21:57.146Z,12.85
2023-11-07T12:27:01.294Z,12.21
2023-11-07T12:32:07.943Z,11.93
2023-11-07T12:37:11.442Z,11.93
2023-11-07T12:42:15.885Z,11.86
2023-11-07T12:47:17.931Z,11.92
2023-11-07T12:52:19.928Z,11.92
2023-11-07T12:57:35.286Z,11.73
2023-11-07T13:02:43.535Z,11.69
2023-11-07T13:07:45.465Z,11.54
2023-11-07T13:12:51.812Z,11.48
2023-11-07T13:18:01.692Z,11.42
2023-11-07T13:23:07.687Z,11.48
2023-11-07T13:28:12.608Z,11.38
2023-11-07T13:33:16.148Z,11.26
2023-11-07T13:38:18.344Z,11.29
2023-11-07T13:43:24.451Z,11.15
2023-11-07T13:48:39.179Z,10.96
2023-11-07T13:53:47.775Z,10.96
2023-11-07T13:58:53.896Z,11.10
2023-11-07T14:03:57.177Z,10.97
2023-11-07T14:08:59.337Z,10.93
2023-11-07T14:14:27.809Z,10.79
2023-11-07T14:19:53.157Z,10.78
2023-11-07T14:24:58.986Z,10.77
2023-11-07T14:30:27.676Z,11.23
2023-11-07T14:35:39.944Z,11.31
2023-11-07T14:40:52.218Z,10.91
2023-11-07T14:45:54.289Z,10.75
2023-11-07T14:51:02.319Z,10.60
2023-11-07T14:56:06.980Z,10.60
2023-11-07T15:01:10.823Z,10.69
2023-11-07T15:06:13.404Z,10.76
2023-11-07T15:11:15.576Z,10.55
2023-11-07T15:16:18.859Z,10.25
2023-11-07T15:21:38.944Z,10.08
2023-11-07T15:26:42.102Z,9.89
2023-11-07T15:31:45.959Z,9.77
2023-11-07T15:36:48.906Z,9.73
2023-11-07T15:41:53.228Z,9.80
2023-11-07T15:47:00.400Z,9.63
2023-11-07T15:52:07.659Z,9.44
2023-11-07T15:57:14.461Z,9.24
2023-11-07T16:02:21.022Z,9.05
2023-11-07T16:07:23.057Z,8.98
2023-11-07T16:12:25.405Z,8.92
2023-11-07T16:17:27.450Z,8.89
2023-11-07T16:22:30.392Z,8.77
2023-11-07T16:27:58.728Z,8.78
2023-11-07T16:33:16.056Z,8.69
2023-11-07T16:38:29.080Z,8.55
2023-11-07T16:43:36.251Z,8.49
2023-11-07T16:48:39.369Z,8.40
2023-11-07T16:53:42.334Z,8.32
2023-11-07T16:58:48.606Z,8.29
2023-11-07T17:03:54.546Z,8.27
2023-11-07T17:08:56.628Z,8.19
2023-11-07T17:14:00.667Z,8.19
2023-11-07T17:19:03.934Z,8.17
2023-11-07T17:24:13.428Z,8.13
2023-11-07T17:29:16.530Z,8.09
2023-11-07T17:34:27.523Z,8.07
2023-11-07T17:39:34.993Z,8.03
2023-11-07T17:44:39.193Z,8.00
2023-11-07T17:49:41.041Z,7.94
2023-11-07T17:54:42.893Z,7.87
2023-11-07T17:59:53.306Z,7.78
2023-11-07T18:04:55.926Z,7.72
2023-11-07T18:09:58.278Z,7.71
2023-11-07T18:15:25.629Z,7.67
2023-11-07T18:20:33.058Z,7.70
2023-11-07T18:25:43.334Z,7.64
2023-11-07T18:30:56.026Z,7.59
2023-11-07T18:35:58.641Z,7.58
2023-11-07T18:41:01.752Z,7.61
2023-11-07T18:46:07.038Z,7.62
2023-11-07T18:51:12.989Z,7.65
2023-11-07T18:56:23.835Z,7.74
2023-11-07T19:01:25.896Z,7.78
2023-11-07T19:06:31.171Z,7.92
2023-11-07T19:11:33.434Z,7.88
2023-11-07T19:16:40.122Z,7.93
2023-11-07T19:21:43.971Z,8.05
2023-11-07T19:26:48.926Z,8.05
2023-11-07T19:32:00.397Z,8.02
2023-11-07T19:37:02.436Z,8.00
2023-11-07T19:42:05.179Z,8.02
2023-11-07T19:47:09.418Z,8.09
2023-11-07T19:52:14.499Z,8.07
2023-11-07T19:57:20.317Z,8.12
2023-11-07T20:02:23.881Z,8.13
2023-11-07T20:07:28.143Z,8.11
2023-11-07T20:12:37.267Z,8.16
2023-11-07T20:17:43.767Z,8.23
2023-11-07T20:22:49.001Z,8.29
2023-11-07T20:27:50.871Z,8.27
2023-11-07T20:32:56.020Z,8.24
2023-11-07T20:38:08.898Z,8.22
2023-11-07T20:43:20.138Z,8.27
2023-11-07T20:48:27.647Z,8.31
2023-11-07T20:53:36.691Z,8.19
2023-11-07T20:58:42.976Z,8.07
2023-11-07T21:03:45.256Z,7.92
2023-11-07T21:08:54.766Z,7.84
2023-11-07T21:14:01.116Z,7.97
2023-11-07T21:19:04.725Z,8.01
2023-11-07T21:24:09.285Z,7.88
2023-11-07T21:29:11.352Z,7.81
2023-11-07T21:34:20.073Z,7.71
2023-11-07T21:39:24.496Z,7.67
2023-11-07T21:44:29.619Z,7.69
2023-11-07T21:49:31.593Z,7.71
2023-11-07T21:54:33.481Z,7.74
2023-11-07T21:59:35.475Z,7.70
2023-11-07T22:04:37.459Z,7.68
2023-11-07T22:09:40.494Z,7.69
2023-11-07T22:14:45.562Z,7.71
2023-11-07T22:19:47.409Z,7.69
2023-11-07T22:24:52.255Z,7.65
2023-11-07T22:30:01.393Z,7.68
2023-11-07T22:35:04.165Z,7.68
2023-11-07T22:40:10.711Z,7.60
2023-11-07T22:45:17.010Z,7.54
2023-11-07T22:50:21.751Z,7.50
2023-11-07T22:55:33.972Z,7.42
2023-11-07T23:00:41.933Z,7.41
2023-11-07T23:05:46.896Z,7.38
2023-11-07T23:10:51.354Z,7.34
2023-11-07T23:15:53.943Z,7.31
2023-11-07T23:20:58.040Z,7.26
2023-11-07T23:25:59.916Z,7.19
2023-11-07T23:31:03.777Z,7.19
2023-11-07T23:36:10.427Z,7.17
2023-11-07T23:41:13.127Z,7.09
2023-11-07T23:46:34.433Z,7.05
2023-11-07T23:51:36.686Z,7.07
2023-11-07T23:56:39.326Z,7.09
